Time Latitude Longitude Accuracy (66% radius in meters) Altitude (meters) Speed (km/hour) Bearing (degrees) Battery (%) GPS flag
07:58:19 57.204567 60.120790 15.170000076294 326 1.8999999761581 70.300003051758 48 1 delete
07:58:18 57.204555 60.120744 13.65299987793 326 1.1599999666214 62.400001525879 48 1 delete
07:58:14 57.204491 60.120631 13.65299987793 327 1.0299999713898 11.199999809265 48 1 delete
07:58:08 57.204482 60.120624 13.65299987793 327 0 0 48 1 delete
07:57:57 57.204475 60.120608 13.65299987793 327 0 0 48 1 delete
07:57:47 57.204470 60.120603 13.65299987793 327 0 0 48 1 delete
07:57:36 57.204429 60.120536 13.65299987793 326 0 0 48 1 delete
07:57:25 57.204425 60.120508 13.65299987793 326 0 0 48 1 delete
07:57:24 57.204425 60.120508 13.65299987793 326 0 0 48 1 delete
07:57:14 57.204415 60.120399 15.170000076294 326 2.8599998950958 85.5 48 1 delete
07:57:13 57.204413 60.120344 15.170000076294 325 2.8099999427795 88.800003051758 48 1 delete
07:57:10 57.204407 60.120141 15.170000076294 326 4.5300002098083 82.199996948242 48 1 delete
07:57:08 57.204386 60.119963 15.170000076294 325 4.5 72 48 1 delete
07:57:06 57.204348 60.119802 15.170000076294 326 4.1500000953674 61.900001525879 48 1 delete
07:57:04 57.204305 60.119645 15.170000076294 327 4.5799999237061 65.5 48 1 delete
07:57:02 57.204264 60.119478 15.170000076294 327 4.0599999427795 62.799999237061 48 1 delete
07:56:59 57.204197 60.119259 15.170000076294 327 3.460000038147 52.5 48 1 delete
07:56:56 57.204115 60.119078 15.170000076294 327 3.6800000667572 45.200000762939 48 1 delete
07:56:54 57.204045 60.118979 15.170000076294 328 3.039999961853 35.700000762939 48 1 delete
07:56:53 57.204011 60.118942 15.170000076294 328 3.2200000286102 37.400001525879 48 1 delete
07:56:50 57.203924 60.118855 15.170000076294 328 2.9200000762939 30 48 1 delete
07:56:47 57.203841 60.118754 15.170000076294 328 1.9500000476837 41.900001525879 48 1 delete
07:56:44 57.203796 60.118665 13.65299987793 327 1.1699999570847 60.400001525879 48 1 delete
07:56:33 57.203780 60.118610 6.0679998397827 325 0 0 48 1 delete
07:56:22 57.203778 60.118598 7.585000038147 326 0 0 48 1 delete
07:56:16 57.203750 60.118663 9.1019992828369 327 1.9800000190735 289.5 48 1 delete
07:56:12 57.203690 60.118775 7.585000038147 325 1.9299999475479 333.70001220703 48 1 delete
07:56:11 57.203668 60.118786 7.585000038147 325 1.9099999666214 336.20001220703 48 1 delete
07:56:06 57.203583 60.118709 7.585000038147 327 1.8300000429153 91.300003051758 48 1 delete
07:56:02 57.203641 60.118621 7.585000038147 328 1.7799999713898 164.89999389648 48 1 delete
07:56:01 57.203664 60.118601 6.0679998397827 328 1.75 163.60000610352 48 1 delete
07:55:51 57.203718 60.118587 10.618999481201 327 0 0 48 1 delete
07:55:44 57.203761 60.118618 7.585000038147 323 1.7300000190735 127.5 48 1 delete
07:55:40 57.203810 60.118595 6.0679998397827 321 1.7200000286102 180.69999694824 48 1 delete
07:55:30 57.203856 60.118532 13.65299987793 322 0 0 48 1 delete
07:55:19 57.203856 60.118531 13.65299987793 322 0 0 48 1 delete
07:55:09 57.203856 60.118531 13.65299987793 322 0 0 48 1 delete
07:54:58 57.203856 60.118530 13.65299987793 322 0 0 48 1 delete
07:54:47 57.203856 60.118528 13.65299987793 321 0 0 48 1 delete
07:54:37 57.203856 60.118527 13.65299987793 322 0 0 48 1 delete
07:54:27 57.203856 60.118524 13.65299987793 322 0 0 48 1 delete
07:54:16 57.203867 60.118512 15.170000076294 322 0 0 48 1 delete
07:54:13 57.203856 60.118530 15.170000076294 322 0 0 48 1 delete
07:54:07 57.203792 60.118657 15.170000076294 321 1.8400000333786 318.10000610352 48 1 delete
07:54:06 57.203767 60.118699 15.170000076294 322 1.7799999713898 256.39999389648 48 1 delete
07:54:03 57.203707 60.118807 16.687000274658 323 1.6399999856949 318.89999389648 48 1 delete
07:53:59 57.203619 60.118850 15.170000076294 325 1.4199999570847 21.5 48 1 delete
07:53:55 57.203614 60.118717 15.170000076294 323 1.3400000333786 121 48 1 delete
07:53:54 57.203631 60.118684 15.170000076294 323 1.3300000429153 140.30000305176 48 1 delete
07:53:50 57.203709 60.118580 15.170000076294 322 1.289999961853 152.10000610352 48 1 delete